Time;durP1;ratioP1;P1;durP2;ratioP2;P2;SDS_P1;SDS_P2;PMS_P1;PMS_P2;Temp;Humidity;BMP_temperature;BMP_pressure;BME280_temperature;BME280_humidity;BME280_pressure;Samples;Min_cycle;Max_cycle;Signal;HPM_P1;HPM_P2
2021/07/16 00:02:08;;;;;;;0.88;0.65;;;;;;;-142.37;100.00;59669.53;5013077;28;20064;-65
2021/07/16 00:04:34;;;;;;;1.42;0.70;;;;;;;-142.37;100.00;59669.53;5013119;28;20018;-67
2021/07/16 00:06:59;;;;;;;1.58;1.10;;;;;;;-142.37;100.00;59669.53;5013275;28;20072;-67
2021/07/16 00:09:25;;;;;;;1.42;1.05;;;;;;;-142.37;100.00;59669.53;5012972;28;20022;-65
2021/07/16 00:11:50;;;;;;;1.00;0.80;;;;;;;-142.37;100.00;59669.53;5013236;28;20033;-65
2021/07/16 00:14:16;;;;;;;1.92;1.00;;;;;;;-142.37;100.00;59669.53;5013143;28;20046;-65
2021/07/16 00:16:41;;;;;;;0.73;0.50;;;;;;;-142.37;100.00;59669.53;5013248;28;20092;-65
2021/07/16 00:19:07;;;;;;;2.03;0.90;;;;;;;-142.37;100.00;59669.53;5030909;28;20028;-65
2021/07/16 00:21:33;;;;;;;1.30;0.95;;;;;;;-142.37;100.00;59669.53;5048227;28;20415;-65
2021/07/16 00:23:58;;;;;;;1.52;0.90;;;;;;;-142.37;100.00;59669.53;5032556;28;20022;-66
2021/07/16 00:26:24;;;;;;;1.30;0.68;;;;;;;-142.37;100.00;59669.53;5032893;28;20383;-66
2021/07/16 00:28:49;;;;;;;1.10;0.70;;;;;;;-142.37;100.00;59669.53;5032847;28;20026;-66
2021/07/16 00:31:15;;;;;;;1.38;0.90;;;;;;;-142.37;100.00;59669.53;5032692;28;20037;-66
2021/07/16 00:33:40;;;;;;;2.00;1.00;;;;;;;-142.37;100.00;59669.53;5032623;28;20034;-68
2021/07/16 00:36:05;;;;;;;0.98;0.80;;;;;;;-142.37;100.00;59669.53;5032836;28;20029;-67
2021/07/16 00:38:31;;;;;;;0.80;0.70;;;;;;;-142.37;100.00;59669.53;5032398;28;20022;-67
2021/07/16 00:40:57;;;;;;;1.60;0.85;;;;;;;-142.37;100.00;59669.53;5032464;28;20025;-65
2021/07/16 00:43:24;;;;;;;0.90;0.60;;;;;;;-142.37;100.00;59669.53;5032784;28;20403;-67
2021/07/16 00:45:49;;;;;;;2.17;0.90;;;;;;;-142.37;100.00;59669.53;5031394;28;20044;-65
2021/07/16 00:48:15;;;;;;;1.15;0.95;;;;;;;-142.37;100.00;59669.53;5035727;28;20488;-65
2021/07/16 00:50:41;;;;;;;1.10;0.90;;;;;;;-142.37;100.00;59669.53;5036211;28;20057;-65
2021/07/16 00:53:09;;;;;;;1.13;0.80;;;;;;;-142.37;100.00;59669.53;5036020;28;20025;-65
2021/07/16 00:55:36;;;;;;;0.70;0.60;;;;;;;-142.37;100.00;59669.53;5035999;28;20053;-65
2021/07/16 00:58:02;;;;;;;1.48;1.05;;;;;;;-142.37;100.00;59669.53;5035871;28;20021;-65
2021/07/16 01:00:27;;;;;;;0.98;0.70;;;;;;;-142.37;100.00;59669.53;5035841;28;20049;-65
2021/07/16 01:02:53;;;;;;;0.95;0.75;;;;;;;-142.37;100.00;59669.53;5035960;28;20035;-65
2021/07/16 01:05:20;;;;;;;0.85;0.77;;;;;;;-142.37;100.00;59669.53;5035911;28;20643;-66
2021/07/16 01:07:49;;;;;;;1.52;0.60;;;;;;;-142.37;100.00;59669.53;5035898;28;20052;-65
2021/07/16 01:10:15;;;;;;;1.63;1.02;;;;;;;-142.37;100.00;59669.53;5035578;28;20057;-66
2021/07/16 01:12:42;;;;;;;0.90;0.75;;;;;;;-142.37;100.00;59669.53;5035734;28;20040;-66
2021/07/16 01:15:10;;;;;;;1.05;0.75;;;;;;;-142.37;100.00;59669.53;5035805;28;20550;-65
2021/07/16 01:17:36;;;;;;;1.27;1.00;;;;;;;-142.37;100.00;59669.53;5035625;28;20036;-66
2021/07/16 01:20:10;;;;;;;1.05;0.90;;;;;;;-142.37;100.00;59669.53;5035260;28;20030;-66
2021/07/16 01:22:37;;;;;;;;;;;;;;;-142.37;100.00;59669.53;5035959;28;20021;-65
2021/07/16 01:25:23;;;;;;;1.55;0.80;;;;;;;-142.37;100.00;59669.53;5035423;28;19909;-65
2021/07/16 01:27:51;;;;;;;1.88;1.15;;;;;;;-142.37;100.00;59669.53;5035542;28;20026;-67
2021/07/16 01:30:20;;;;;;;1.40;0.80;;;;;;;-142.37;100.00;59669.53;5035318;28;20028;-65
2021/07/16 01:32:47;;;;;;;1.40;0.80;;;;;;;-142.37;100.00;59669.53;5035376;28;20065;-66
2021/07/16 01:35:13;;;;;;;1.80;0.77;;;;;;;-142.37;100.00;59669.53;5034205;28;20567;-65
2021/07/16 01:37:39;;;;;;;1.85;0.88;;;;;;;-142.37;100.00;59669.53;5035253;28;20468;-66
2021/07/16 01:40:07;;;;;;;1.42;0.80;;;;;;;-142.37;100.00;59669.53;5034983;28;20468;-65
2021/07/16 01:42:38;;;;;;;0.80;0.80;;;;;;;-142.37;100.00;59669.53;5034092;28;20486;-64
2021/07/16 01:45:09;;;;;;;1.50;1.05;;;;;;;-142.37;100.00;59669.53;5035268;28;20036;-65
2021/07/16 01:47:36;;;;;;;1.08;0.55;;;;;;;-142.37;100.00;59669.53;5033670;28;20393;-66
2021/07/16 01:50:03;;;;;;;2.20;1.00;;;;;;;-142.37;100.00;59669.53;5033907;28;20411;-65
2021/07/16 01:52:30;;;;;;;1.08;0.65;;;;;;;-142.37;100.00;59669.53;5034955;28;20029;-66
2021/07/16 01:54:55;;;;;;;0.65;0.63;;;;;;;-142.37;100.00;59669.53;5035090;28;20021;-67
2021/07/16 01:57:21;;;;;;;1.92;0.65;;;;;;;-142.37;100.00;59669.53;5019107;28;20101;-67
2021/07/16 01:59:46;;;;;;;1.30;0.60;;;;;;;-142.37;100.00;59669.53;5012741;28;20046;-66
2021/07/16 02:02:11;;;;;;;0.50;0.50;;;;;;;-142.37;100.00;59669.53;5014759;28;20037;-65
2021/07/16 02:04:37;;;;;;;1.00;0.82;;;;;;;-142.37;100.00;59669.53;5020142;28;20033;-65
2021/07/16 02:07:02;;;;;;;0.98;0.43;;;;;;;-142.37;100.00;59669.53;5034727;28;20036;-66
2021/07/16 02:09:28;;;;;;;0.75;0.68;;;;;;;-142.37;100.00;59669.53;5034688;28;20044;-66
2021/07/16 02:11:57;;;;;;;1.10;0.50;;;;;;;-142.37;100.00;59669.53;5034421;28;20499;-66
2021/07/16 02:14:23;;;;;;;0.70;0.50;;;;;;;-142.37;100.00;59669.53;5034626;28;20475;-67
2021/07/16 02:16:49;;;;;;;1.35;0.52;;;;;;;-142.37;100.00;59669.53;5034645;28;20025;-67
2021/07/16 02:19:14;;;;;;;2.20;0.50;;;;;;;-142.37;100.00;59669.53;5015546;28;20033;-66
2021/07/16 02:21:39;;;;;;;0.60;0.55;;;;;;;-142.37;100.00;59669.53;5014657;28;20401;-66
2021/07/16 02:24:05;;;;;;;1.92;0.77;;;;;;;-142.37;100.00;59669.53;5014561;28;20032;-65
2021/07/16 02:26:30;;;;;;;1.25;0.70;;;;;;;-142.37;100.00;59669.53;5014631;28;20029;-65
2021/07/16 02:28:55;;;;;;;1.75;0.47;;;;;;;-142.37;100.00;59669.53;5014445;28;20469;-66
2021/07/16 02:31:21;;;;;;;1.50;0.35;;;;;;;-142.37;100.00;59669.53;5014148;28;20026;-65
2021/07/16 02:33:47;;;;;;;0.88;0.47;;;;;;;-142.37;100.00;59669.53;5014511;28;20030;-65
2021/07/16 02:36:15;;;;;;;0.73;0.40;;;;;;;-142.37;100.00;59669.53;5013121;28;20025;-64
2021/07/16 02:38:40;;;;;;;0.82;0.40;;;;;;;-142.37;100.00;59669.53;5014530;28;20029;-65
2021/07/16 02:41:06;;;;;;;1.40;0.63;;;;;;;-142.37;100.00;59669.53;5014388;28;20026;-66
2021/07/16 02:43:31;;;;;;;0.82;0.55;;;;;;;-142.37;100.00;59669.53;5014433;28;20401;-65
2021/07/16 02:45:57;;;;;;;1.02;0.35;;;;;;;-142.37;100.00;59669.53;5014270;28;20161;-65
2021/07/16 02:48:22;;;;;;;1.13;0.70;;;;;;;-142.37;100.00;59669.53;5014284;28;20394;-66
2021/07/16 02:50:48;;;;;;;0.88;0.40;;;;;;;-142.37;100.00;59669.53;5014501;28;20026;-66
2021/07/16 02:53:20;;;;;;;1.48;0.55;;;;;;;-142.37;100.00;59669.53;5013065;28;20025;-65
2021/07/16 02:55:45;;;;;;;0.68;0.50;;;;;;;-142.37;100.00;59669.53;5014013;28;20026;-65
2021/07/16 02:58:11;;;;;;;0.93;0.40;;;;;;;-142.37;100.00;59669.53;5013980;28;20033;-64
2021/07/16 03:00:38;;;;;;;0.40;0.40;;;;;;;-142.37;100.00;59669.53;5013859;28;20053;-65
2021/07/16 03:03:03;;;;;;;1.17;0.40;;;;;;;-142.37;100.00;59669.53;5014007;28;20042;-65
2021/07/16 03:05:31;;;;;;;0.88;0.30;;;;;;;-142.37;100.00;59669.53;5014130;28;20032;-65
2021/07/16 03:07:58;;;;;;;0.85;0.32;;;;;;;-142.37;100.00;59669.53;5013966;28;20025;-64
2021/07/16 03:10:44;;;;;;;1.05;0.50;;;;;;;-142.37;100.00;59669.53;5013361;28;20030;-65
2021/07/16 03:13:15;;;;;;;1.00;0.40;;;;;;;-142.37;100.00;59669.53;5013849;28;20389;-65
2021/07/16 03:15:41;;;;;;;1.77;0.30;;;;;;;-142.37;100.00;59669.53;5013996;28;20036;-65
2021/07/16 03:18:07;;;;;;;1.67;0.60;;;;;;;-142.37;100.00;59669.53;5023296;28;20029;-65
2021/07/16 03:20:41;;;;;;;0.65;0.30;;;;;;;-142.37;100.00;59669.53;5033453;28;20045;-66
2021/07/16 03:23:11;;;;;;;0.73;0.35;;;;;;;-142.37;100.00;59669.53;5033227;28;20014;-65
2021/07/16 03:25:38;;;;;;;1.85;0.60;;;;;;;-142.37;100.00;59669.53;5033408;28;20072;-65
2021/07/16 03:28:09;;;;;;;1.13;0.40;;;;;;;-142.37;100.00;59669.53;5033297;28;20037;-67
2021/07/16 03:30:35;;;;;;;0.98;0.40;;;;;;;-142.37;100.00;59669.53;5033275;28;20100;-68
2021/07/16 03:33:00;;;;;;;1.15;0.52;;;;;;;-142.37;100.00;59669.53;5033093;28;20116;-65
2021/07/16 03:35:26;;;;;;;2.25;0.50;;;;;;;-142.37;100.00;59669.53;5033340;28;20071;-65
2021/07/16 03:37:52;;;;;;;1.40;0.40;;;;;;;-142.37;100.00;59669.53;5033068;28;20468;-65
2021/07/16 03:40:23;;;;;;;2.45;0.30;;;;;;;-142.37;100.00;59669.53;5033088;28;20044;-66
2021/07/16 03:42:49;;;;;;;2.15;0.40;;;;;;;-142.37;100.00;59669.53;5033297;28;20049;-65
2021/07/16 03:45:18;;;;;;;0.47;0.30;;;;;;;-142.37;100.00;59669.53;5033058;28;20038;-65
2021/07/16 03:47:45;;;;;;;0.57;0.30;;;;;;;-142.37;100.00;59669.53;5033230;28;20048;-65
2021/07/16 03:50:12;;;;;;;0.75;0.35;;;;;;;-142.37;100.00;59669.53;5032701;28;20018;-66
2021/07/16 03:52:37;;;;;;;0.32;0.20;;;;;;;-142.37;100.00;59669.53;5032729;28;20112;-65
2021/07/16 03:55:06;;;;;;;1.48;0.40;;;;;;;-142.37;100.00;59669.53;5033015;28;20148;-65
2021/07/16 03:57:32;;;;;;;0.60;0.38;;;;;;;-142.37;100.00;59669.53;5012846;28;20038;-65
2021/07/16 04:00:01;;;;;;;1.60;0.70;;;;;;;-142.37;100.00;59669.53;5013099;28;20085;-68
2021/07/16 04:02:26;;;;;;;2.00;0.75;;;;;;;-142.37;100.00;59669.53;5011995;28;20104;-67
2021/07/16 04:04:53;;;;;;;0.52;0.30;;;;;;;-142.37;100.00;59669.53;5012170;28;20145;-65
2021/07/16 04:07:22;;;;;;;0.45;0.30;;;;;;;-142.37;100.00;59669.53;5013153;28;20030;-66
2021/07/16 04:09:48;;;;;;;1.63;0.30;;;;;;;-142.37;100.00;59669.53;5013352;28;20030;-66
2021/07/16 04:12:16;;;;;;;0.40;0.20;;;;;;;-142.37;100.00;59669.53;5012990;28;20025;-65
2021/07/16 04:14:49;;;;;;;1.10;0.30;;;;;;;-142.37;100.00;59669.53;5013193;28;20029;-65
2021/07/16 04:17:17;;;;;;;0.60;0.30;;;;;;;-142.37;100.00;59669.53;5015799;28;20064;-65
2021/07/16 04:19:44;;;;;;;0.60;0.30;;;;;;;-142.37;100.00;59669.53;5032681;28;20527;-66
2021/07/16 04:22:10;;;;;;;1.38;0.63;;;;;;;-142.37;100.00;59669.53;5034629;28;20511;-65
2021/07/16 04:24:37;;;;;;;1.40;0.35;;;;;;;-142.37;100.00;59669.53;5036724;28;20109;-65
2021/07/16 04:27:03;;;;;;;0.90;0.50;;;;;;;-142.37;100.00;59669.53;5036496;28;20036;-66
2021/07/16 04:29:29;;;;;;;1.33;0.30;;;;;;;-142.37;100.00;59669.53;5036715;28;20071;-67
2021/07/16 04:31:55;;;;;;;1.52;0.20;;;;;;;-142.37;100.00;59669.53;5035136;28;20030;-67
2021/07/16 04:34:21;;;;;;;1.05;0.30;;;;;;;-142.37;100.00;59669.53;5036067;28;20030;-67
2021/07/16 04:36:46;;;;;;;0.95;0.28;;;;;;;-142.37;100.00;59669.53;5036454;28;20056;-66
2021/07/16 04:39:12;;;;;;;0.95;0.30;;;;;;;-142.37;100.00;59669.53;5036229;28;20057;-66
2021/07/16 04:41:38;;;;;;;1.08;0.30;;;;;;;-142.37;100.00;59669.53;5036470;28;20079;-66
2021/07/16 04:44:03;;;;;;;0.68;0.40;;;;;;;-142.37;100.00;59669.53;5036086;28;20067;-65
2021/07/16 04:46:29;;;;;;;0.65;0.45;;;;;;;-142.37;100.00;59669.53;5035151;28;20029;-65
2021/07/16 04:48:57;;;;;;;0.30;0.22;;;;;;;-142.37;100.00;59669.53;5036297;28;20064;-67
2021/07/16 04:51:27;;;;;;;0.40;0.40;;;;;;;-142.37;100.00;59669.53;5036073;28;20022;-66
2021/07/16 04:53:54;;;;;;;0.52;0.40;;;;;;;-142.37;100.00;59669.53;5035888;28;20384;-66
2021/07/16 04:56:20;;;;;;;0.88;0.35;;;;;;;-142.37;100.00;59669.53;5036129;28;20380;-66
2021/07/16 04:58:45;;;;;;;0.30;0.20;;;;;;;-142.37;100.00;59669.53;5035898;28;20562;-66
2021/07/16 05:01:10;;;;;;;0.15;0.13;;;;;;;-142.37;100.00;59669.53;5035963;28;20029;-66
2021/07/16 05:03:36;;;;;;;0.68;0.20;;;;;;;-142.37;100.00;59669.53;5036011;28;20030;-67
2021/07/16 05:06:02;;;;;;;0.40;0.30;;;;;;;-142.37;100.00;59669.53;5035646;28;20025;-69
2021/07/16 05:08:30;;;;;;;0.73;0.30;;;;;;;-142.37;100.00;59669.53;5036014;28;20399;-69
2021/07/16 05:10:55;;;;;;;0.95;0.30;;;;;;;-142.37;100.00;59669.53;5035873;28;20025;-69
2021/07/16 05:13:20;;;;;;;0.95;0.30;;;;;;;-142.37;100.00;59669.53;5035746;28;20028;-66
2021/07/16 05:15:46;;;;;;;0.75;0.20;;;;;;;-142.37;100.00;59669.53;5034457;28;20357;-65
2021/07/16 05:18:11;;;;;;;0.60;0.20;;;;;;;-142.37;100.00;59669.53;5024231;28;20026;-65
2021/07/16 05:20:36;;;;;;;0.20;0.10;;;;;;;-142.37;100.00;59669.53;5021533;28;20080;-66
2021/07/16 05:23:02;;;;;;;0.60;0.30;;;;;;;-142.37;100.00;59669.53;5035457;28;20116;-66
2021/07/16 05:25:27;;;;;;;1.35;0.50;;;;;;;-142.37;100.00;59669.53;5035595;28;20500;-66
2021/07/16 05:27:52;;;;;;;1.60;0.50;;;;;;;-142.37;100.00;59669.53;5035673;28;20025;-66
2021/07/16 05:30:18;;;;;;;0.60;0.20;;;;;;;-142.37;100.00;59669.53;5035471;28;20040;-65
2021/07/16 05:32:43;;;;;;;0.75;0.40;;;;;;;-142.37;100.00;59669.53;5035056;28;20051;-67
2021/07/16 05:35:09;;;;;;;0.90;0.30;;;;;;;-142.37;100.00;59669.53;5034133;28;20033;-66
2021/07/16 05:37:35;;;;;;;0.35;0.20;;;;;;;-142.37;100.00;59669.53;5035205;28;20023;-65
2021/07/16 05:40:00;;;;;;;0.52;0.20;;;;;;;-142.37;100.00;59669.53;5035053;28;20116;-65
2021/07/16 05:42:25;;;;;;;0.47;0.30;;;;;;;-142.37;100.00;59669.53;5035177;28;20060;-67
2021/07/16 05:44:51;;;;;;;1.17;0.32;;;;;;;-142.37;100.00;59669.53;5035186;28;20537;-68
2021/07/16 05:47:16;;;;;;;1.55;0.50;;;;;;;-142.37;100.00;59669.53;5035112;28;20453;-66
2021/07/16 05:49:42;;;;;;;0.40;0.22;;;;;;;-142.37;100.00;59669.53;5035167;28;20017;-65
2021/07/16 05:52:07;;;;;;;0.80;0.50;;;;;;;-142.37;100.00;59669.53;5034883;28;20033;-64
2021/07/16 05:54:32;;;;;;;0.90;0.30;;;;;;;-142.37;100.00;59669.53;5031835;28;20033;-65
2021/07/16 05:56:58;;;;;;;2.20;0.38;;;;;;;-142.37;100.00;59669.53;5017061;28;20018;-66
2021/07/16 05:59:23;;;;;;;0.93;0.30;;;;;;;-142.37;100.00;59669.53;5014866;28;20054;-65
2021/07/16 06:01:48;;;;;;;0.38;0.30;;;;;;;-142.37;100.00;59669.53;5014943;28;20030;-65
2021/07/16 06:04:14;;;;;;;0.43;0.40;;;;;;;-142.37;100.00;59669.53;5015064;28;20052;-65
2021/07/16 06:06:40;;;;;;;0.93;0.38;;;;;;;-142.37;100.00;59669.53;5015018;28;20033;-66
2021/07/16 06:09:06;;;;;;;0.73;0.38;;;;;;;-142.37;100.00;59669.53;5015016;28;20385;-67
2021/07/16 06:11:32;;;;;;;0.50;0.20;;;;;;;-142.37;100.00;59669.53;5014892;28;20477;-66
2021/07/16 06:13:59;;;;;;;0.93;0.45;;;;;;;-142.37;100.00;59669.53;5014782;28;20033;-67
2021/07/16 06:16:25;;;;;;;0.50;0.22;;;;;;;-142.37;100.00;59669.53;5014835;28;20025;-69
2021/07/16 06:18:50;;;;;;;1.50;0.43;;;;;;;-142.37;100.00;59669.53;5021649;28;20029;-68
2021/07/16 06:21:16;;;;;;;0.75;0.20;;;;;;;-142.37;100.00;59669.53;5014984;28;20018;-67
2021/07/16 06:23:41;;;;;;;1.08;0.30;;;;;;;-142.37;100.00;59669.53;5014597;28;20018;-67
2021/07/16 06:26:07;;;;;;;0.60;0.30;;;;;;;-142.37;100.00;59669.53;5014609;28;20473;-64
2021/07/16 06:28:32;;;;;;;1.08;0.28;;;;;;;-142.37;100.00;59669.53;5014656;28;20029;-64
2021/07/16 06:30:57;;;;;;;0.45;0.30;;;;;;;-142.37;100.00;59669.53;5014655;28;20415;-63
2021/07/16 06:33:23;;;;;;;1.27;0.35;;;;;;;-142.37;100.00;59669.53;5014522;28;20088;-63
2021/07/16 06:35:48;;;;;;;1.05;0.50;;;;;;;-142.37;100.00;59669.53;5014447;28;20388;-63
2021/07/16 06:38:13;;;;;;;0.55;0.25;;;;;;;-142.37;100.00;59669.53;5014340;28;20022;-64
2021/07/16 06:40:39;;;;;;;0.70;0.30;;;;;;;-142.37;100.00;59669.53;5014479;28;20080;-65
2021/07/16 06:43:09;;;;;;;0.38;0.30;;;;;;;-142.37;100.00;59669.53;5014284;28;20460;-64
2021/07/16 06:45:36;;;;;;;0.57;0.17;;;;;;;-142.37;100.00;59669.53;5013833;28;20033;-64
2021/07/16 06:48:04;;;;;;;0.50;0.30;;;;;;;-142.37;100.00;59669.53;5027783;28;20021;-66
2021/07/16 06:50:29;;;;;;;0.90;0.25;;;;;;;-142.37;100.00;59669.53;5033904;28;20532;-64
2021/07/16 06:52:55;;;;;;;1.02;0.40;;;;;;;-142.37;100.00;59669.53;5033693;28;20124;-64
2021/07/16 06:55:20;;;;;;;1.30;0.30;;;;;;;-142.37;100.00;59669.53;5033661;28;20025;-63
2021/07/16 06:57:45;;;;;;;0.38;0.17;;;;;;;-142.37;100.00;59669.53;5033794;28;20036;-63
2021/07/16 07:00:11;;;;;;;1.02;0.47;;;;;;;-142.37;100.00;59669.53;5033537;28;20045;-64
2021/07/16 07:02:37;;;;;;;0.22;0.10;;;;;;;-142.37;100.00;59669.53;5032067;28;20420;-64
2021/07/16 07:05:03;;;;;;;0.70;0.40;;;;;;;-142.37;100.00;59669.53;5032425;28;20030;-63
2021/07/16 07:07:28;;;;;;;1.27;0.40;;;;;;;-142.37;100.00;59669.53;5033293;28;20044;-63
2021/07/16 07:09:53;;;;;;;0.30;0.22;;;;;;;-142.37;100.00;59669.53;5033714;28;20017;-63
2021/07/16 07:12:19;;;;;;;0.55;0.35;;;;;;;-142.37;100.00;59669.53;5032439;28;20029;-64
2021/07/16 07:14:44;;;;;;;0.40;0.30;;;;;;;-142.37;100.00;59669.53;5033332;28;20033;-65
2021/07/16 07:17:09;;;;;;;0.75;0.20;;;;;;;-142.37;100.00;59669.53;5033266;28;20380;-65
2021/07/16 07:19:35;;;;;;;0.82;0.32;;;;;;;-142.37;100.00;59669.53;5033455;28;20025;-65
2021/07/16 07:22:02;;;;;;;0.35;0.15;;;;;;;-142.37;100.00;59669.53;5033352;28;20034;-63
2021/07/16 07:24:27;;;;;;;1.55;0.20;;;;;;;-142.37;100.00;59669.53;5032694;28;20037;-64
2021/07/16 07:26:55;;;;;;;0.90;0.38;;;;;;;-142.37;100.00;59669.53;5033463;28;20022;-64
2021/07/16 07:29:21;;;;;;;0.30;0.30;;;;;;;-142.37;100.00;59669.53;5033266;28;20021;-63
2021/07/16 07:31:46;;;;;;;0.50;0.25;;;;;;;-142.37;100.00;59669.53;5033482;28;20025;-63
2021/07/16 07:34:12;;;;;;;0.47;0.30;;;;;;;-142.37;100.00;59669.53;5033166;28;20025;-64
2021/07/16 07:36:37;;;;;;;0.80;0.40;;;;;;;-142.37;100.00;59669.53;5033269;28;20234;-64
2021/07/16 07:39:05;;;;;;;1.42;0.32;;;;;;;-142.37;100.00;59669.53;5032946;28;20029;-64
2021/07/16 07:41:30;;;;;;;0.60;0.50;;;;;;;-142.37;100.00;59669.53;5033290;28;20033;-63
2021/07/16 07:43:56;;;;;;;0.85;0.38;;;;;;;-142.37;100.00;59669.53;5032809;28;20025;-63
2021/07/16 07:46:23;;;;;;;0.63;0.32;;;;;;;-142.37;100.00;59669.53;5033170;28;20044;-64
2021/07/16 07:48:49;;;;;;;1.45;0.30;;;;;;;-142.37;100.00;59669.53;5033094;28;20460;-64
2021/07/16 07:51:15;;;;;;;0.88;0.35;;;;;;;-142.37;100.00;59669.53;5032956;28;20052;-64
2021/07/16 07:53:40;;;;;;;1.00;0.20;;;;;;;-142.37;100.00;59669.53;5030147;28;20464;-64
2021/07/16 07:56:06;;;;;;;1.02;0.35;;;;;;;-142.37;100.00;59669.53;5031519;28;20033;-66
2021/07/16 07:58:31;;;;;;;0.60;0.15;;;;;;;-142.37;100.00;59669.53;5035382;28;20448;-63
2021/07/16 08:00:56;;;;;;;0.30;0.20;;;;;;;-142.37;100.00;59669.53;5036454;28;20043;-63
2021/07/16 08:03:22;;;;;;;1.10;0.32;;;;;;;-142.37;100.00;59669.53;5036369;28;20021;-63
2021/07/16 08:05:48;;;;;;;0.60;0.35;;;;;;;-142.37;100.00;59669.53;5037022;28;20025;-64
2021/07/16 08:08:13;;;;;;;1.20;0.50;;;;;;;-142.37;100.00;59669.53;5036720;28;20018;-64
2021/07/16 08:10:38;;;;;;;0.52;0.30;;;;;;;-142.37;100.00;59669.53;5037026;28;20468;-63
2021/07/16 08:13:04;;;;;;;0.73;0.20;;;;;;;-142.37;100.00;59669.53;5036757;28;20022;-63
2021/07/16 08:15:29;;;;;;;1.88;0.35;;;;;;;-142.37;100.00;59669.53;5036553;28;20052;-66
2021/07/16 08:17:55;;;;;;;1.35;0.40;;;;;;;-142.37;100.00;59669.53;5036575;28;20025;-67
2021/07/16 08:20:20;;;;;;;0.35;0.20;;;;;;;-142.37;100.00;59669.53;5036641;28;20084;-66
2021/07/16 08:22:46;;;;;;;1.90;0.32;;;;;;;-142.37;100.00;59669.53;5036583;28;20040;-67
2021/07/16 08:25:12;;;;;;;0.82;0.35;;;;;;;-142.37;100.00;59669.53;5036567;28;20021;-68
2021/07/16 08:27:39;;;;;;;0.77;0.30;;;;;;;-142.37;100.00;59669.53;5036312;28;20104;-69
2021/07/16 08:30:05;;;;;;;2.10;0.43;;;;;;;-142.37;100.00;59669.53;5035743;28;20079;-67
2021/07/16 08:32:31;;;;;;;0.85;0.20;;;;;;;-142.37;100.00;59669.53;5036367;28;20029;-66
2021/07/16 08:34:56;;;;;;;0.50;0.20;;;;;;;-142.37;100.00;59669.53;5036222;28;20063;-66
2021/07/16 08:37:22;;;;;;;0.40;0.28;;;;;;;-142.37;100.00;59669.53;5036230;28;20423;-67
2021/07/16 08:39:47;;;;;;;0.63;0.43;;;;;;;-142.37;100.00;59669.53;5036516;28;20029;-66
2021/07/16 08:42:14;;;;;;;1.40;0.30;;;;;;;-142.37;100.00;59669.53;5035089;28;20512;-65
2021/07/16 08:44:43;;;;;;;0.88;0.35;;;;;;;-142.37;100.00;59669.53;5023670;28;20018;-66
2021/07/16 08:47:10;;;;;;;0.85;0.30;;;;;;;-142.37;100.00;59669.53;5015795;28;20431;-67
2021/07/16 08:49:38;;;;;;;0.73;0.40;;;;;;;-142.37;100.00;59669.53;5016113;28;20385;-66
2021/07/16 08:52:05;;;;;;;0.20;0.10;;;;;;;-142.37;100.00;59669.53;5025664;28;20067;-66
2021/07/16 08:54:31;;;;;;;0.47;0.20;;;;;;;-142.37;100.00;59669.53;5034415;28;20029;-66
2021/07/16 08:56:56;;;;;;;0.65;0.17;;;;;;;-142.37;100.00;59669.53;5036170;28;20496;-67
2021/07/16 08:59:21;;;;;;;1.20;0.22;;;;;;;-142.37;100.00;59669.53;5037944;23;20050;-67
2021/07/16 09:01:47;;;;;;;1.08;0.50;;;;;;;-142.37;100.00;59669.53;5029129;28;20036;-68
2021/07/16 09:04:13;;;;;;;0.63;0.10;;;;;;;-142.37;100.00;59669.53;5048026;28;20028;-66
2021/07/16 09:06:48;;;;;;;1.23;0.40;;;;;;;-142.37;100.00;59669.53;5035850;28;20056;-66
2021/07/16 09:09:16;;;;;;;1.35;0.45;;;;;;;-142.37;100.00;59669.53;5016790;28;20022;-67
2021/07/16 09:11:48;;;;;;;1.65;0.35;;;;;;;-142.37;100.00;59669.53;5017736;28;20473;-67
2021/07/16 09:14:30;;;;;;;1.02;0.20;;;;;;;-142.37;100.00;59669.53;5018340;28;20419;-66
2021/07/16 09:17:01;;;;;;;0.75;0.30;;;;;;;-142.37;100.00;59669.53;5025689;28;20025;-67
2021/07/16 09:19:34;;;;;;;0.95;0.20;;;;;;;-142.37;100.00;59669.53;5023625;28;20021;-67
2021/07/16 09:22:13;;;;;;;0.50;0.40;;;;;;;-142.37;100.00;59669.53;5026103;28;20640;-67
2021/07/16 09:24:42;;;;;;;1.83;0.40;;;;;;;-142.37;100.00;59669.53;5025941;28;20100;-67
2021/07/16 09:27:33;;;;;;;0.77;0.30;;;;;;;-142.37;100.00;59669.53;5024402;28;20711;-67
2021/07/16 09:30:23;;;;;;;0.60;0.43;;;;;;;-142.37;100.00;59669.53;5023288;28;20025;-66
2021/07/16 09:32:56;;;;;;;1.13;0.30;;;;;;;-142.37;100.00;59669.53;5027295;28;20056;-67
2021/07/16 09:35:24;;;;;;;1.08;0.45;;;;;;;-142.37;100.00;59669.53;5023453;28;20025;-66
2021/07/16 09:37:59;;;;;;;1.13;0.35;;;;;;;-142.37;100.00;59669.53;5025582;28;20017;-66
2021/07/16 09:40:52;;;;;;;0.40;0.30;;;;;;;-142.37;100.00;59669.53;5020845;28;20025;-66
2021/07/16 09:43:21;;;;;;;0.80;0.10;;;;;;;-142.37;100.00;59669.53;5024087;28;20037;-68
2021/07/16 09:46:05;;;;;;;0.73;0.40;;;;;;;-142.37;100.00;59669.53;5026317;28;20450;-66
2021/07/16 09:48:33;;;;;;;0.50;0.28;;;;;;;-142.37;100.00;59669.53;5024151;28;20101;-66
2021/07/16 09:51:18;;;;;;;0.70;0.30;;;;;;;-142.37;100.00;59669.53;5025375;28;20472;-67
2021/07/16 09:53:50;;;;;;;0.52;0.20;;;;;;;-142.37;100.00;59669.53;5025466;28;20095;-66
2021/07/16 09:56:17;;;;;;;1.05;0.30;;;;;;;-142.37;100.00;59669.53;5024504;28;20029;-66
2021/07/16 09:58:43;;;;;;;1.52;0.47;;;;;;;-142.37;100.00;59669.53;5023239;28;20048;-67
2021/07/16 10:01:09;;;;;;;0.82;0.40;;;;;;;-142.37;100.00;59669.53;5014922;28;20026;-66
2021/07/16 10:03:36;;;;;;;1.15;0.63;;;;;;;-142.37;100.00;59669.53;5014898;28;20097;-66
2021/07/16 10:06:02;;;;;;;1.02;0.40;;;;;;;-142.37;100.00;59669.53;5013781;28;20421;-67
2021/07/16 10:08:33;;;;;;;0.43;0.30;;;;;;;-142.37;100.00;59669.53;5014882;28;20033;-67
2021/07/16 10:11:02;;;;;;;0.20;0.20;;;;;;;-142.37;100.00;59669.53;5014714;28;20025;-66
2021/07/16 10:13:31;;;;;;;1.55;0.45;;;;;;;-142.37;100.00;59669.53;5014469;28;20445;-66
2021/07/16 10:15:56;;;;;;;1.67;0.50;;;;;;;-142.37;100.00;59669.53;5014769;28;20049;-66
2021/07/16 10:18:22;;;;;;;1.17;0.40;;;;;;;-142.37;100.00;59669.53;5026068;28;20075;-68
2021/07/16 10:20:48;;;;;;;0.50;0.22;;;;;;;-142.37;100.00;59669.53;5033419;28;20033;-67
2021/07/16 10:23:14;;;;;;;1.15;0.30;;;;;;;-142.37;100.00;59669.53;5034472;28;20053;-66
2021/07/16 10:25:40;;;;;;;1.20;0.40;;;;;;;-142.37;100.00;59669.53;5034108;28;20057;-63
2021/07/16 10:28:05;;;;;;;1.00;0.30;;;;;;;-142.37;100.00;59669.53;5034270;28;20109;-63
2021/07/16 10:30:34;;;;;;;1.13;0.47;;;;;;;-142.37;100.00;59669.53;5033176;28;20032;-64
2021/07/16 10:33:00;;;;;;;0.88;0.30;;;;;;;-142.37;100.00;59669.53;5034139;28;20075;-63
2021/07/16 10:35:35;;;;;;;0.98;0.47;;;;;;;-142.37;100.00;59669.53;5034343;28;20036;-63
2021/07/16 10:38:06;;;;;;;1.95;0.68;;;;;;;-142.37;100.00;59669.53;5033998;28;20583;-63
2021/07/16 10:40:44;;;;;;;1.02;0.40;;;;;;;-142.37;100.00;59669.53;5019808;28;20037;-64
2021/07/16 10:43:22;;;;;;;1.25;0.30;;;;;;;-142.37;100.00;59669.53;5024619;28;20039;-63
2021/07/16 10:45:47;;;;;;;1.42;0.32;;;;;;;-142.37;100.00;59669.53;5034148;28;20032;-63
2021/07/16 10:48:17;;;;;;;2.00;0.50;;;;;;;-142.37;100.00;59669.53;5033746;28;20116;-64
2021/07/16 10:50:45;;;;;;;1.17;0.30;;;;;;;-142.37;100.00;59669.53;5034086;28;20468;-64
2021/07/16 10:53:33;;;;;;;0.93;0.38;;;;;;;-142.37;100.00;59669.53;5032343;28;20036;-66
2021/07/16 10:56:01;;;;;;;1.95;0.68;;;;;;;-142.37;100.00;59669.53;5033576;28;20040;-67
2021/07/16 10:58:29;;;;;;;0.90;0.50;;;;;;;-142.37;100.00;59669.53;5022545;28;20033;-67
2021/07/16 11:00:55;;;;;;;0.50;0.30;;;;;;;-142.37;100.00;59669.53;5013828;28;20437;-66
2021/07/16 11:03:22;;;;;;;0.50;0.30;;;;;;;-142.37;100.00;59669.53;5033637;28;20025;-66
2021/07/16 11:05:49;;;;;;;0.60;0.50;;;;;;;-142.37;100.00;59669.53;5016796;28;20076;-66
2021/07/16 11:08:28;;;;;;;1.50;0.50;;;;;;;-142.37;100.00;59669.53;5013893;28;20048;-68
2021/07/16 11:11:01;;;;;;;0.88;0.40;;;;;;;-142.37;100.00;59669.53;5013969;28;20083;-67